createdAt,value
2022-09-28T00:00:36.933Z,1.42
2022-09-28T00:03:24.469Z,1.15
2022-09-28T00:06:12.009Z,1.15
2022-09-28T00:08:59.550Z,1.35
2022-09-28T00:11:47.099Z,1.53
2022-09-28T00:14:34.635Z,1.71
2022-09-28T00:17:22.192Z,1.91
2022-09-28T00:20:09.730Z,1.98
2022-09-28T00:22:57.369Z,1.99
2022-09-28T00:25:44.917Z,1.80
2022-09-28T00:28:32.473Z,1.79
2022-09-28T00:31:20.080Z,1.67
2022-09-28T00:34:07.710Z,1.94
2022-09-28T00:36:55.238Z,1.69
2022-09-28T00:39:42.813Z,1.82
2022-09-28T00:42:30.341Z,1.90
2022-09-28T00:45:17.899Z,1.83
2022-09-28T00:48:05.438Z,2.05
2022-09-28T00:50:53.071Z,2.17
2022-09-28T00:53:40.597Z,2.31
2022-09-28T00:56:28.162Z,2.03
2022-09-28T00:59:15.714Z,2.46
2022-09-28T01:02:03.382Z,2.63
2022-09-28T01:04:51.006Z,2.78
2022-09-28T01:07:38.663Z,2.69
2022-09-28T01:10:26.207Z,2.55
2022-09-28T01:13:13.842Z,2.57
2022-09-28T01:16:01.448Z,2.68
2022-09-28T01:18:49.071Z,2.69
2022-09-28T01:21:36.601Z,2.88
2022-09-28T01:24:26.149Z,2.82
2022-09-28T01:27:13.688Z,2.54
2022-09-28T01:30:03.215Z,2.48
2022-09-28T01:32:50.764Z,2.83
2022-09-28T01:35:38.293Z,2.38
2022-09-28T01:38:25.837Z,2.45
2022-09-28T01:41:13.406Z,2.30
2022-09-28T01:44:00.942Z,2.30
2022-09-28T01:46:48.507Z,2.36
2022-09-28T01:49:36.057Z,2.47
2022-09-28T01:52:23.580Z,2.07
2022-09-28T01:55:11.140Z,2.07
2022-09-28T01:57:58.688Z,2.27
2022-09-28T02:00:46.256Z,2.01
2022-09-28T02:03:33.847Z,2.04
2022-09-28T02:06:21.393Z,1.84
2022-09-28T02:09:09.052Z,2.10
2022-09-28T02:11:56.868Z,2.09
2022-09-28T02:14:44.518Z,2.03
2022-09-28T02:17:32.049Z,2.18
2022-09-28T02:20:19.612Z,2.05
2022-09-28T02:23:07.152Z,2.25
2022-09-28T02:25:54.700Z,1.95
2022-09-28T02:28:42.345Z,2.00
2022-09-28T02:31:29.917Z,1.88
2022-09-28T02:34:17.526Z,2.12
2022-09-28T02:37:05.059Z,2.11
2022-09-28T02:39:52.617Z,2.47
2022-09-28T02:42:40.157Z,3.49
2022-09-28T02:45:27.745Z,3.92
2022-09-28T02:48:15.299Z,8.05
2022-09-28T02:51:04.870Z,30.36
2022-09-28T02:53:52.414Z,33.81
2022-09-28T02:56:39.970Z,35.18
2022-09-28T02:59:27.534Z,35.69
2022-09-28T03:02:15.109Z,64.84
2022-09-28T03:05:02.728Z,39.01
2022-09-28T03:07:50.273Z,39.00
2022-09-28T03:10:37.823Z,30.94
2022-09-28T03:13:25.359Z,26.00
2022-09-28T03:16:12.975Z,21.75
2022-09-28T03:19:00.534Z,21.59
2022-09-28T03:21:48.198Z,38.70
2022-09-28T03:24:37.749Z,41.29
2022-09-28T03:27:25.317Z,53.41
2022-09-28T03:30:14.859Z,70.12
2022-09-28T03:33:02.437Z,53.31
2022-09-28T03:35:51.986Z,54.29
2022-09-28T03:38:39.560Z,61.05
2022-09-28T03:41:27.126Z,43.11
2022-09-28T03:44:14.701Z,44.87
2022-09-28T03:47:02.247Z,41.42
2022-09-28T03:49:49.800Z,50.32
2022-09-28T03:52:37.362Z,42.23
2022-09-28T03:55:24.927Z,40.18
2022-09-28T03:58:14.473Z,29.72
2022-09-28T04:01:02.071Z,25.00
2022-09-28T04:03:49.660Z,32.36
2022-09-28T04:06:37.235Z,45.11
2022-09-28T04:09:24.779Z,18.15
2022-09-28T04:12:12.353Z,29.60
2022-09-28T04:14:59.910Z,18.99
2022-09-28T04:17:47.473Z,26.37
2022-09-28T04:20:35.015Z,15.03
2022-09-28T04:23:22.669Z,23.73
2022-09-28T04:26:12.198Z,30.09
2022-09-28T04:29:03.984Z,32.03
2022-09-28T04:31:53.866Z,27.46
2022-09-28T04:34:44.091Z,22.65
2022-09-28T04:37:32.051Z,25.19
2022-09-28T04:40:19.646Z,13.62
2022-09-28T04:43:09.215Z,23.34
2022-09-28T04:45:56.845Z,29.01
2022-09-28T04:48:44.454Z,38.31
2022-09-28T04:51:34.104Z,12.74
2022-09-28T04:54:21.647Z,16.70
2022-09-28T04:57:09.198Z,16.15
2022-09-28T04:59:56.782Z,18.20
2022-09-28T05:02:44.422Z,14.04
2022-09-28T05:05:31.965Z,9.67
2022-09-28T05:08:19.534Z,5.88
2022-09-28T05:11:07.069Z,11.38
2022-09-28T05:13:54.631Z,4.43
2022-09-28T05:16:42.246Z,3.75
2022-09-28T05:19:29.918Z,3.55
2022-09-28T05:22:19.438Z,2.62
2022-09-28T05:25:07.017Z,1.61
2022-09-28T05:27:54.598Z,2.57
2022-09-28T05:30:42.131Z,1.62
2022-09-28T05:33:29.673Z,2.36
2022-09-28T05:36:17.255Z,2.76
2022-09-28T05:39:04.789Z,3.35
2022-09-28T05:41:52.364Z,2.71
2022-09-28T05:44:39.912Z,2.26
2022-09-28T05:47:27.458Z,3.67
2022-09-28T05:50:15.010Z,7.45
2022-09-28T05:53:02.579Z,7.57
2022-09-28T05:55:50.133Z,7.83
2022-09-28T05:58:37.777Z,15.50
2022-09-28T06:01:25.383Z,11.33
2022-09-28T06:04:12.959Z,6.53
2022-09-28T06:07:00.530Z,12.45
2022-09-28T06:09:48.107Z,13.26
2022-09-28T06:12:35.652Z,9.48
2022-09-28T06:15:23.209Z,9.11
2022-09-28T06:18:10.736Z,11.20
2022-09-28T06:20:58.399Z,5.13
2022-09-28T06:23:49.408Z,3.00
2022-09-28T06:26:37.205Z,2.82
2022-09-28T06:29:24.731Z,1.54
2022-09-28T06:32:12.282Z,1.71
2022-09-28T06:34:59.811Z,1.14
2022-09-28T06:37:47.852Z,1.45
2022-09-28T06:40:37.475Z,4.87
2022-09-28T06:43:25.061Z,10.84
2022-09-28T06:46:12.717Z,13.93
2022-09-28T06:49:00.331Z,1.48
2022-09-28T06:51:47.881Z,1.40
2022-09-28T06:54:35.425Z,1.02
2022-09-28T06:57:23.086Z,0.95
2022-09-28T07:00:10.624Z,1.04
2022-09-28T07:02:58.156Z,0.85
2022-09-28T07:05:45.686Z,0.87
2022-09-28T07:08:33.238Z,0.77
2022-09-28T07:11:20.784Z,0.61
2022-09-28T07:14:09.375Z,0.43
2022-09-28T07:17:12.580Z,0.55
2022-09-28T07:20:11.705Z,0.53
2022-09-28T07:23:14.516Z,0.52
2022-09-28T07:26:08.571Z,0.54
2022-09-28T07:28:56.452Z,0.53
2022-09-28T07:31:43.995Z,0.66
2022-09-28T07:34:43.608Z,0.54
2022-09-28T07:37:31.168Z,0.69
2022-09-28T07:40:18.794Z,0.59
2022-09-28T07:43:06.365Z,0.61
2022-09-28T07:45:54.047Z,0.64
2022-09-28T07:48:41.700Z,0.61
2022-09-28T07:51:29.239Z,0.56
2022-09-28T07:54:16.761Z,0.49
2022-09-28T07:57:04.307Z,0.56
2022-09-28T07:59:51.890Z,0.66
2022-09-28T08:02:39.503Z,0.54
2022-09-28T08:05:27.094Z,0.56
2022-09-28T08:08:14.720Z,0.52
2022-09-28T08:11:02.268Z,0.50
2022-09-28T08:13:49.832Z,0.49
2022-09-28T08:19:29.905Z,0.44
2022-09-28T08:22:19.415Z,0.43
2022-09-28T08:25:06.988Z,0.40
2022-09-28T08:27:56.529Z,0.35
2022-09-28T08:30:44.154Z,0.51
2022-09-28T08:33:31.741Z,0.66
2022-09-28T08:36:19.315Z,0.58
2022-09-28T08:39:06.856Z,0.63
2022-09-28T08:41:54.415Z,0.71
2022-09-28T08:44:44.916Z,0.75
2022-09-28T08:47:32.506Z,0.93
2022-09-28T08:50:20.056Z,1.04
2022-09-28T08:53:07.913Z,0.90
2022-09-28T08:55:55.477Z,1.03
2022-09-28T08:58:43.075Z,0.85
2022-09-28T09:01:30.700Z,0.76
2022-09-28T09:04:18.409Z,0.77
2022-09-28T09:07:06.102Z,0.90
2022-09-28T09:09:53.640Z,0.78
2022-09-28T09:12:41.228Z,0.85
2022-09-28T09:15:28.817Z,0.78
2022-09-28T09:18:19.820Z,1.04
2022-09-28T09:21:07.753Z,0.88
2022-09-28T09:23:55.326Z,1.08
2022-09-28T09:26:42.873Z,0.93
2022-09-28T09:29:30.420Z,1.03
2022-09-28T09:32:17.959Z,1.08
2022-09-28T09:35:05.496Z,0.99
2022-09-28T09:37:58.344Z,1.03
2022-09-28T09:40:48.239Z,1.14
2022-09-28T09:43:35.821Z,0.93
2022-09-28T09:46:23.423Z,0.81
2022-09-28T09:49:11.028Z,0.67
2022-09-28T09:51:58.561Z,0.70
2022-09-28T09:54:46.115Z,0.56
2022-09-28T09:57:33.652Z,0.54
2022-09-28T10:00:22.327Z,0.59
2022-09-28T10:03:09.860Z,0.58
2022-09-28T10:05:57.410Z,0.40
2022-09-28T10:08:44.944Z,0.51
2022-09-28T10:11:32.495Z,0.64
2022-09-28T10:14:20.033Z,0.52
2022-09-28T10:17:07.653Z,0.76
2022-09-28T10:19:55.215Z,0.72
2022-09-28T10:22:42.769Z,0.61
2022-09-28T10:25:30.309Z,0.57
2022-09-28T10:28:17.859Z,0.50
2022-09-28T10:31:05.587Z,0.43
2022-09-28T10:33:53.218Z,0.49
2022-09-28T10:36:40.741Z,0.54
2022-09-28T10:39:28.309Z,0.66
2022-09-28T10:42:15.842Z,0.69
2022-09-28T10:45:03.380Z,0.65
2022-09-28T10:47:50.920Z,0.59
2022-09-28T10:50:38.480Z,0.63
2022-09-28T10:53:26.008Z,0.51
2022-09-28T10:56:13.572Z,0.51
2022-09-28T10:59:01.113Z,0.47
2022-09-28T11:01:48.794Z,0.48
2022-09-28T11:04:36.363Z,0.57
2022-09-28T11:07:23.925Z,0.41
2022-09-28T11:10:11.481Z,0.51
2022-09-28T11:12:59.089Z,0.55
2022-09-28T11:15:46.649Z,0.44
2022-09-28T11:18:34.288Z,0.53
2022-09-28T11:21:23.809Z,0.55
2022-09-28T11:24:14.400Z,0.37
2022-09-28T11:27:04.284Z,0.50
2022-09-28T11:29:51.813Z,0.60
2022-09-28T11:32:39.452Z,0.56
2022-09-28T11:35:26.967Z,0.55
2022-09-28T11:38:14.515Z,0.45
2022-09-28T11:41:02.078Z,0.45
2022-09-28T11:43:49.653Z,0.52
2022-09-28T11:46:37.190Z,0.54
2022-09-28T11:49:24.716Z,0.53
2022-09-28T11:52:12.245Z,0.54
2022-09-28T11:54:59.821Z,0.69
2022-09-28T11:57:47.357Z,0.79
2022-09-28T12:00:34.905Z,1.05
2022-09-28T12:03:22.586Z,1.29
2022-09-28T12:06:10.275Z,1.30
2022-09-28T12:08:57.806Z,1.28
2022-09-28T12:11:45.363Z,1.33
2022-09-28T12:14:32.905Z,1.37
2022-09-28T12:17:20.597Z,1.35
2022-09-28T12:20:08.205Z,1.75
2022-09-28T12:22:55.868Z,1.45
2022-09-28T12:25:43.394Z,1.56
2022-09-28T12:28:30.961Z,2.06
2022-09-28T12:31:18.562Z,1.73
2022-09-28T12:34:06.186Z,1.61
2022-09-28T12:36:53.738Z,1.63
2022-09-28T12:39:56.881Z,1.68
2022-09-28T12:42:44.878Z,1.82
2022-09-28T12:45:38.712Z,2.21
2022-09-28T12:48:30.749Z,2.17
2022-09-28T12:51:18.326Z,2.15
2022-09-28T12:54:05.872Z,1.76
2022-09-28T12:56:53.431Z,2.03
2022-09-28T12:59:40.966Z,1.83
2022-09-28T13:02:28.592Z,1.70
2022-09-28T13:05:16.213Z,1.65
2022-09-28T13:08:03.767Z,1.66
2022-09-28T13:10:51.572Z,1.97
2022-09-28T13:13:39.192Z,1.72
2022-09-28T13:16:26.810Z,1.31
2022-09-28T13:19:14.460Z,1.31
2022-09-28T13:22:02.085Z,1.28
2022-09-28T13:24:49.639Z,1.25
2022-09-28T13:27:37.249Z,1.18
2022-09-28T13:30:24.831Z,1.08
2022-09-28T13:33:12.407Z,0.83
2022-09-28T13:35:59.949Z,0.65
2022-09-28T13:38:47.521Z,0.70
2022-09-28T13:41:35.073Z,0.68
2022-09-28T13:44:22.642Z,0.63
2022-09-28T13:47:10.177Z,0.49
2022-09-28T13:49:57.791Z,0.59
2022-09-28T13:52:45.418Z,0.48
2022-09-28T13:55:33.025Z,0.54
2022-09-28T13:58:20.625Z,0.52
2022-09-28T14:01:08.280Z,0.67
2022-09-28T14:03:55.871Z,0.52
2022-09-28T14:06:47.484Z,0.58
2022-09-28T14:09:37.067Z,0.60
2022-09-28T14:12:24.624Z,0.69
2022-09-28T14:15:12.188Z,0.64
2022-09-28T14:17:59.761Z,0.70
2022-09-28T14:20:47.294Z,0.73
2022-09-28T14:23:34.849Z,0.78
2022-09-28T14:26:22.393Z,0.98
2022-09-28T14:29:10.294Z,0.86
2022-09-28T14:31:57.872Z,0.99
2022-09-28T14:34:45.429Z,0.98
2022-09-28T14:37:33.011Z,0.81
2022-09-28T14:40:20.634Z,1.00
2022-09-28T14:43:08.211Z,1.33
2022-09-28T14:45:55.913Z,1.06
2022-09-28T14:48:43.473Z,1.07
2022-09-28T14:51:31.056Z,1.14
2022-09-28T14:54:18.632Z,1.08
2022-09-28T14:57:06.238Z,0.88
2022-09-28T14:59:53.781Z,0.97
2022-09-28T15:02:41.331Z,0.90
2022-09-28T15:05:28.986Z,0.82
2022-09-28T15:08:16.636Z,3.45
2022-09-28T15:11:04.173Z,4.30
2022-09-28T15:13:51.729Z,1.06
2022-09-28T15:16:39.270Z,0.96
2022-09-28T15:19:26.843Z,2.71
2022-09-28T15:22:14.405Z,1.67
2022-09-28T15:25:02.893Z,1.68
2022-09-28T15:27:50.661Z,1.11
2022-09-28T15:30:38.295Z,0.77
2022-09-28T15:33:25.880Z,0.71
2022-09-28T15:36:13.443Z,0.57
2022-09-28T15:39:00.977Z,0.73
2022-09-28T15:41:48.545Z,0.48
2022-09-28T15:44:36.092Z,0.61
2022-09-28T15:47:23.651Z,0.72
2022-09-28T15:50:11.198Z,0.52
2022-09-28T15:52:58.730Z,0.59
2022-09-28T15:55:46.273Z,0.65
2022-09-28T15:58:33.866Z,0.75
2022-09-28T16:01:21.429Z,0.86
2022-09-28T16:04:09.081Z,0.90
2022-09-28T16:06:56.636Z,0.74
2022-09-28T16:09:44.186Z,0.64
2022-09-28T16:12:31.753Z,0.81
2022-09-28T16:15:21.304Z,0.86
2022-09-28T16:18:08.831Z,1.00
2022-09-28T16:20:56.367Z,1.09
2022-09-28T16:23:43.916Z,1.25
2022-09-28T16:26:31.452Z,1.13
2022-09-28T16:29:19.072Z,1.37
2022-09-28T16:32:06.681Z,2.44
2022-09-28T16:34:54.237Z,23.82
2022-09-28T16:37:41.804Z,62.84
2022-09-28T16:40:29.372Z,1.89
2022-09-28T16:43:17.069Z,1.74
2022-09-28T16:46:04.644Z,1.84
2022-09-28T16:48:52.240Z,0.99
2022-09-28T16:51:39.751Z,1.49
2022-09-28T16:54:27.302Z,1.60
2022-09-28T16:57:14.843Z,15.35
2022-09-28T17:00:02.404Z,1.99
2022-09-28T17:02:50.005Z,1.53
2022-09-28T17:05:37.563Z,1.32
2022-09-28T17:08:25.116Z,1.14
2022-09-28T17:11:17.024Z,1.16
2022-09-28T17:14:07.885Z,1.27
2022-09-28T17:17:08.117Z,1.26
2022-09-28T17:19:58.108Z,1.48
2022-09-28T17:22:45.646Z,1.43
2022-09-28T17:25:33.195Z,1.47
2022-09-28T17:28:20.712Z,1.28
2022-09-28T17:31:19.785Z,1.25
2022-09-28T17:34:07.367Z,0.87
2022-09-28T17:36:54.930Z,0.97
2022-09-28T17:39:42.462Z,0.88
2022-09-28T17:42:30.008Z,0.85
2022-09-28T17:45:17.550Z,0.98
2022-09-28T17:48:05.099Z,0.93
2022-09-28T17:50:52.633Z,0.84
2022-09-28T17:53:40.194Z,0.82
2022-09-28T17:56:31.925Z,0.83
2022-09-28T17:59:22.075Z,0.66
2022-09-28T18:02:09.669Z,0.82
2022-09-28T18:04:57.656Z,0.55
2022-09-28T18:07:47.604Z,0.63
2022-09-28T18:10:35.443Z,0.63
2022-09-28T18:13:23.119Z,0.44
2022-09-28T18:16:10.713Z,0.40
2022-09-28T18:18:58.409Z,0.41
2022-09-28T18:21:47.916Z,0.41
2022-09-28T18:24:35.466Z,0.34
2022-09-28T18:27:22.992Z,0.37
2022-09-28T18:30:12.556Z,0.38
2022-09-28T18:33:00.083Z,0.38
2022-09-28T18:35:47.635Z,0.42
2022-09-28T18:38:35.176Z,0.31
2022-09-28T18:41:22.693Z,0.38
2022-09-28T18:44:10.238Z,0.45
2022-09-28T18:46:57.785Z,0.38
2022-09-28T18:49:46.813Z,0.46
2022-09-28T18:52:34.488Z,0.37
2022-09-28T18:55:22.034Z,0.52
2022-09-28T18:58:09.592Z,0.71
2022-09-28T19:01:13.504Z,0.72
2022-09-28T19:04:04.625Z,0.91
2022-09-28T19:06:52.167Z,0.95
2022-09-28T19:09:39.725Z,0.67
2022-09-28T19:12:29.251Z,0.59
2022-09-28T19:15:16.780Z,0.45
2022-09-28T19:18:04.313Z,0.50
2022-09-28T19:20:51.949Z,0.26
2022-09-28T19:23:39.488Z,0.37
2022-09-28T19:26:27.058Z,0.42
2022-09-28T19:29:14.674Z,0.45
2022-09-28T19:32:02.320Z,0.44
2022-09-28T19:34:49.856Z,0.50
2022-09-28T19:37:37.409Z,0.59
2022-09-28T19:40:24.956Z,0.90
2022-09-28T19:43:12.519Z,0.93
2022-09-28T19:46:00.237Z,0.94
2022-09-28T19:48:47.793Z,0.91
2022-09-28T19:51:35.426Z,0.85
2022-09-28T19:54:24.932Z,0.93
2022-09-28T19:57:12.478Z,0.78
2022-09-28T20:00:02.701Z,0.51
2022-09-28T20:02:50.995Z,0.41
2022-09-28T20:05:38.565Z,0.32
2022-09-28T20:08:26.092Z,0.41
2022-09-28T20:11:13.674Z,0.39
2022-09-28T20:14:01.205Z,0.33
2022-09-28T20:16:48.759Z,0.44
2022-09-28T20:19:36.283Z,0.47
2022-09-28T20:22:23.846Z,0.57
2022-09-28T20:25:11.384Z,0.50
2022-09-28T20:27:58.929Z,0.52
2022-09-28T20:30:46.535Z,0.62
2022-09-28T20:33:34.101Z,0.57
2022-09-28T20:36:21.623Z,0.55
2022-09-28T20:39:09.173Z,0.71
2022-09-28T20:41:56.726Z,0.63
2022-09-28T20:44:44.268Z,0.53
2022-09-28T20:47:31.805Z,0.41
2022-09-28T20:50:22.024Z,0.46
2022-09-28T20:53:09.642Z,0.53
2022-09-28T20:55:57.188Z,0.69
2022-09-28T20:58:44.717Z,0.52
2022-09-28T21:01:32.392Z,0.46
2022-09-28T21:04:20.059Z,0.46
2022-09-28T21:07:07.859Z,0.48
2022-09-28T21:09:55.402Z,0.34
2022-09-28T21:12:42.955Z,0.40
2022-09-28T21:15:30.547Z,0.50
2022-09-28T21:18:18.130Z,0.59
2022-09-28T21:21:05.667Z,0.84
2022-09-28T21:23:53.215Z,1.06
2022-09-28T21:26:40.754Z,1.09
2022-09-28T21:29:28.299Z,1.07
2022-09-28T21:32:15.829Z,1.16
2022-09-28T21:35:03.461Z,1.14
2022-09-28T21:37:52.993Z,0.75
2022-09-28T21:40:40.558Z,0.89
2022-09-28T21:43:30.093Z,0.68
2022-09-28T21:46:17.771Z,0.69
2022-09-28T21:49:05.364Z,0.67
2022-09-28T21:51:52.901Z,0.51
2022-09-28T21:54:40.432Z,0.64
2022-09-28T21:57:27.965Z,0.71
2022-09-28T22:00:15.551Z,0.80
2022-09-28T22:03:03.125Z,1.04
2022-09-28T22:05:50.694Z,1.26
2022-09-28T22:08:38.253Z,1.27
2022-09-28T22:11:25.817Z,1.68
2022-09-28T22:14:13.373Z,1.70
2022-09-28T22:17:00.921Z,1.91
2022-09-28T22:19:48.448Z,1.64
2022-09-28T22:22:36.006Z,1.57
2022-09-28T22:25:23.554Z,1.48
2022-09-28T22:28:11.200Z,1.65
2022-09-28T22:30:58.771Z,1.22
2022-09-28T22:33:46.360Z,0.99
2022-09-28T22:36:33.871Z,0.94
2022-09-28T22:39:21.530Z,0.63
2022-09-28T22:42:09.068Z,0.77
2022-09-28T22:44:56.624Z,0.56
2022-09-28T22:47:44.154Z,0.70
2022-09-28T22:50:31.695Z,0.67
2022-09-28T22:53:19.239Z,0.82
2022-09-28T22:56:06.786Z,0.82
2022-09-28T22:58:54.328Z,1.13
2022-09-28T23:01:41.891Z,1.48
2022-09-28T23:04:29.514Z,1.86
2022-09-28T23:07:17.086Z,1.75
2022-09-28T23:10:04.623Z,1.64
2022-09-28T23:12:52.178Z,1.70
2022-09-28T23:15:39.729Z,1.52
2022-09-28T23:18:27.331Z,1.67
2022-09-28T23:21:14.883Z,1.21
2022-09-28T23:24:02.420Z,1.52
2022-09-28T23:26:49.967Z,2.65
2022-09-28T23:29:37.493Z,2.03
2022-09-28T23:32:28.559Z,1.82
2022-09-28T23:35:18.738Z,1.76
2022-09-28T23:38:06.283Z,2.73
2022-09-28T23:40:53.855Z,18.94
2022-09-28T23:43:41.465Z,26.16
2022-09-28T23:46:29.059Z,33.25
2022-09-28T23:49:16.719Z,13.81
2022-09-28T23:52:04.274Z,42.11
2022-09-28T23:54:53.850Z,31.14
2022-09-28T23:57:41.400Z,47.75
